createdAt,value
2023-01-03T00:01:22.727Z,99803.00
2023-01-03T00:03:49.746Z,99813.91
2023-01-03T00:06:25.603Z,99807.72
2023-01-03T00:08:53.658Z,99819.41
2023-01-03T00:11:43.402Z,99817.19
2023-01-03T00:14:12.282Z,99821.34
2023-01-03T00:16:39.380Z,99820.69
2023-01-03T00:19:14.325Z,99817.69
2023-01-03T00:21:42.515Z,99823.91
2023-01-03T00:24:10.392Z,99821.34
2023-01-03T00:26:37.889Z,99825.03
2023-01-03T00:29:04.793Z,99830.13
2023-01-03T00:31:31.467Z,99828.06
2023-01-03T00:33:58.137Z,99836.53
2023-01-03T00:36:24.931Z,99839.47
2023-01-03T00:38:51.588Z,99845.63
2023-01-03T00:41:19.441Z,99844.44
2023-01-03T00:43:48.182Z,99846.72
2023-01-03T00:46:16.946Z,99846.53
2023-01-03T00:48:44.200Z,99850.28
2023-01-03T00:51:17.480Z,99857.78
2023-01-03T00:53:46.290Z,99857.00
2023-01-03T00:56:15.347Z,99856.00
2023-01-03T00:58:42.502Z,99856.84
2023-01-03T01:01:42.482Z,99854.97
2023-01-03T01:04:22.111Z,99851.66
2023-01-03T01:06:51.985Z,99855.16
2023-01-03T01:09:27.363Z,99859.50
2023-01-03T01:11:55.155Z,99860.63
2023-01-03T01:14:30.333Z,99866.63
2023-01-03T01:17:02.835Z,99872.94
2023-01-03T01:19:47.611Z,99868.75
2023-01-03T01:22:14.345Z,99863.59
2023-01-03T01:24:41.879Z,99876.59
2023-01-03T01:27:08.641Z,99871.31
2023-01-03T01:29:35.713Z,99871.16
2023-01-03T01:32:03.155Z,99883.38
2023-01-03T01:34:30.430Z,99888.84
2023-01-03T01:36:57.349Z,99892.44
2023-01-03T01:39:27.595Z,99890.84
2023-01-03T01:42:19.801Z,99890.66
2023-01-03T01:44:55.425Z,99898.47
2023-01-03T01:47:24.978Z,99895.84
2023-01-03T01:50:15.130Z,99893.94
2023-01-03T01:52:48.177Z,99888.66
2023-01-03T01:55:20.774Z,99902.56
2023-01-03T01:57:48.033Z,99890.22
2023-01-03T02:00:15.003Z,99892.78
2023-01-03T02:02:43.910Z,99897.19
2023-01-03T02:05:11.445Z,99906.97
2023-01-03T02:07:38.978Z,99904.50
2023-01-03T02:10:06.398Z,99907.31
2023-01-03T02:13:06.991Z,99915.25
2023-01-03T02:15:39.195Z,99916.09
2023-01-03T02:18:26.474Z,99917.97
2023-01-03T02:21:02.160Z,99919.16
2023-01-03T02:23:41.033Z,99916.50
2023-01-03T02:26:32.587Z,99919.06
2023-01-03T02:29:30.121Z,99913.88
2023-01-03T02:32:02.614Z,99920.84
2023-01-03T02:34:29.160Z,99911.66
2023-01-03T02:36:58.771Z,99913.47
2023-01-03T02:39:25.612Z,99925.22
2023-01-03T02:42:32.839Z,99919.16
2023-01-03T02:45:14.465Z,99918.63
2023-01-03T02:47:52.069Z,99922.38
2023-01-03T02:50:24.948Z,99925.09
2023-01-03T02:52:55.155Z,99927.16
2023-01-03T02:55:26.104Z,99929.00
2023-01-03T02:58:00.990Z,99932.91
2023-01-03T03:00:30.802Z,99931.19
2023-01-03T03:03:06.599Z,99932.75
2023-01-03T03:05:48.098Z,99934.63
2023-01-03T03:08:14.825Z,99939.75
2023-01-03T03:11:00.934Z,99935.31
2023-01-03T03:13:40.610Z,99942.59
2023-01-03T03:16:43.870Z,99945.69
2023-01-03T03:19:49.942Z,99942.75
2023-01-03T03:22:54.999Z,99939.50
2023-01-03T03:25:26.396Z,99941.38
2023-01-03T03:28:17.118Z,99939.69
2023-01-03T03:30:46.095Z,99941.22
2023-01-03T03:33:15.533Z,99939.81
2023-01-03T03:35:50.954Z,99950.53
2023-01-03T03:38:25.685Z,99955.19
2023-01-03T03:41:31.047Z,99951.19
2023-01-03T03:44:43.248Z,99953.19
2023-01-03T03:47:16.565Z,99953.38
2023-01-03T03:49:47.314Z,99952.38
2023-01-03T03:52:17.197Z,99954.47
2023-01-03T03:54:58.391Z,99950.88
2023-01-03T03:57:33.824Z,99948.47
2023-01-03T04:00:07.031Z,99952.28
2023-01-03T04:02:36.342Z,99954.31
2023-01-03T04:05:08.426Z,99955.22
2023-01-03T04:07:35.228Z,99957.72
2023-01-03T04:10:01.962Z,99958.78
2023-01-03T04:12:28.718Z,99962.44
2023-01-03T04:14:55.425Z,99959.72
2023-01-03T04:17:22.134Z,99966.88
2023-01-03T04:19:48.766Z,99964.44
2023-01-03T04:22:15.374Z,99966.38
2023-01-03T04:24:42.890Z,99962.22
2023-01-03T04:27:09.492Z,99970.97
2023-01-03T04:29:39.393Z,99969.31
2023-01-03T04:32:08.222Z,99965.19
2023-01-03T04:34:34.988Z,99969.84
2023-01-03T04:37:01.620Z,99977.00
2023-01-03T04:39:28.257Z,99979.81
2023-01-03T04:41:54.844Z,99969.13
2023-01-03T04:44:21.427Z,99972.06
2023-01-03T04:46:52.757Z,99974.84
2023-01-03T04:49:20.374Z,99973.38
2023-01-03T04:51:46.975Z,99974.66
2023-01-03T04:54:13.592Z,99977.72
2023-01-03T04:56:40.256Z,99992.13
2023-01-03T04:59:06.921Z,99986.34
2023-01-03T05:01:34.055Z,99996.31
2023-01-03T05:04:01.975Z,99988.78
2023-01-03T05:06:29.042Z,99991.63
2023-01-03T05:08:55.958Z,99999.97
2023-01-03T05:11:23.306Z,100003.41
2023-01-03T05:13:50.007Z,100005.41
2023-01-03T05:16:16.898Z,100003.06
2023-01-03T05:18:43.664Z,100003.13
2023-01-03T05:21:37.165Z,99999.78
2023-01-03T05:24:23.816Z,99994.88
2023-01-03T05:26:51.666Z,99995.13
2023-01-03T05:29:21.414Z,100004.00
2023-01-03T05:31:49.012Z,100013.75
2023-01-03T05:34:15.871Z,100017.13
2023-01-03T05:36:42.701Z,100006.50
2023-01-03T05:39:09.421Z,100003.56
2023-01-03T05:41:54.392Z,100009.03
2023-01-03T05:44:21.231Z,100005.94
2023-01-03T05:46:48.006Z,100011.50
2023-01-03T05:49:14.802Z,100014.13
2023-01-03T05:51:42.708Z,100017.31
2023-01-03T05:54:14.022Z,100010.28
2023-01-03T05:56:40.716Z,100015.41
2023-01-03T05:59:10.768Z,100018.22
2023-01-03T06:01:37.657Z,100016.50
2023-01-03T06:04:04.572Z,100020.78
2023-01-03T06:06:31.280Z,100019.13
2023-01-03T06:08:59.080Z,100020.06
2023-01-03T06:11:25.685Z,100025.72
2023-01-03T06:13:53.076Z,100021.50
2023-01-03T06:16:39.342Z,100023.03
2023-01-03T06:19:07.582Z,100029.13
2023-01-03T06:21:35.120Z,100033.00
2023-01-03T06:24:02.110Z,100034.75
2023-01-03T06:26:29.248Z,100037.34
2023-01-03T06:28:56.288Z,100038.31
2023-01-03T06:31:23.053Z,100038.38
2023-01-03T06:33:49.963Z,100032.19
2023-01-03T06:36:19.872Z,100038.69
2023-01-03T06:38:46.777Z,100043.09
2023-01-03T06:41:14.782Z,100042.25
2023-01-03T06:43:42.077Z,100043.22
2023-01-03T06:46:29.595Z,100042.34
2023-01-03T06:49:14.741Z,100061.94
2023-01-03T06:52:00.211Z,100063.75
2023-01-03T06:54:36.006Z,100067.34
2023-01-03T06:57:03.053Z,100059.00
2023-01-03T06:59:29.714Z,100061.88
2023-01-03T07:01:56.510Z,100065.50
2023-01-03T07:04:24.926Z,100073.38
2023-01-03T07:06:51.737Z,100076.00
2023-01-03T07:09:18.378Z,100076.00
2023-01-03T07:11:45.316Z,100081.69
2023-01-03T07:14:12.296Z,100084.56
2023-01-03T07:16:40.144Z,100091.56
2023-01-03T07:19:08.737Z,100089.63
2023-01-03T07:21:36.653Z,100087.75
2023-01-03T07:24:05.130Z,100097.44
2023-01-03T07:26:33.812Z,100102.72
2023-01-03T07:29:02.735Z,100104.25
2023-01-03T07:31:29.531Z,100109.72
2023-01-03T07:33:57.210Z,100114.06
2023-01-03T07:36:23.928Z,100115.94
2023-01-03T07:38:50.745Z,100118.56
2023-01-03T07:41:18.255Z,100124.75
2023-01-03T07:43:48.087Z,100126.56
2023-01-03T07:46:24.452Z,100132.97
2023-01-03T07:48:55.082Z,100127.75
2023-01-03T07:51:22.411Z,100131.84
2023-01-03T07:53:53.478Z,100132.59
2023-01-03T07:56:22.406Z,100139.75
2023-01-03T07:58:49.689Z,100146.09
2023-01-03T08:01:19.213Z,100137.50
2023-01-03T08:03:46.276Z,100139.25
2023-01-03T08:06:15.239Z,100148.84
2023-01-03T08:08:42.920Z,100146.91
2023-01-03T08:11:33.031Z,100149.53
2023-01-03T08:14:00.226Z,100145.81
2023-01-03T08:16:27.292Z,100155.41
2023-01-03T08:18:54.869Z,100152.00
2023-01-03T08:21:21.503Z,100154.59
2023-01-03T08:23:49.043Z,100152.72
2023-01-03T08:26:17.143Z,100152.50
2023-01-03T08:28:44.451Z,100160.81
2023-01-03T08:31:32.754Z,100157.97
2023-01-03T08:34:10.421Z,100165.78
2023-01-03T08:36:49.518Z,100165.66
2023-01-03T08:39:21.353Z,100165.38
2023-01-03T08:41:57.478Z,100173.09
2023-01-03T08:44:25.122Z,100166.78
2023-01-03T08:46:54.766Z,100166.72
2023-01-03T08:49:21.934Z,100171.06
2023-01-03T08:51:48.666Z,100170.72
2023-01-03T08:54:15.285Z,100175.72
2023-01-03T08:56:42.033Z,100178.09
2023-01-03T08:59:09.043Z,100171.94
2023-01-03T09:01:35.755Z,100171.56
2023-01-03T09:04:02.533Z,100172.38
2023-01-03T09:06:29.182Z,100176.56
2023-01-03T09:08:55.770Z,100181.72
2023-01-03T09:11:22.365Z,100176.97
2023-01-03T09:13:48.978Z,100180.31
2023-01-03T09:16:16.893Z,100184.50
2023-01-03T09:18:43.903Z,100182.44
2023-01-03T09:21:10.653Z,100186.38
2023-01-03T09:23:37.783Z,100183.56
2023-01-03T09:26:05.351Z,100190.31
2023-01-03T09:28:32.264Z,100191.94
2023-01-03T09:30:58.871Z,100190.06
2023-01-03T09:33:25.626Z,100179.44
2023-01-03T09:35:54.608Z,100179.28
2023-01-03T09:38:22.719Z,100180.63
2023-01-03T09:40:58.639Z,100179.50
2023-01-03T09:43:30.517Z,100182.72
2023-01-03T09:45:58.651Z,100183.53
2023-01-03T09:48:39.952Z,100185.09
2023-01-03T09:51:46.965Z,100186.66
2023-01-03T09:54:36.545Z,100188.25
2023-01-03T09:57:28.475Z,100183.59
2023-01-03T10:00:14.317Z,100184.16
2023-01-03T10:03:25.280Z,100186.38
2023-01-03T10:06:22.332Z,100186.38
2023-01-03T10:08:57.772Z,100180.03
2023-01-03T10:11:46.705Z,100184.91
2023-01-03T10:14:43.227Z,100174.78
2023-01-03T10:17:43.237Z,100182.50
2023-01-03T10:20:33.379Z,100181.59
2023-01-03T10:23:00.908Z,100172.53
2023-01-03T10:25:29.016Z,100165.94
2023-01-03T10:28:02.599Z,100159.41
2023-01-03T10:30:53.848Z,100166.44
2023-01-03T10:33:42.615Z,100173.91
2023-01-03T10:36:09.789Z,100161.28
2023-01-03T10:38:44.823Z,100163.00
2023-01-03T10:41:45.106Z,100160.00
2023-01-03T10:44:27.607Z,100156.28
2023-01-03T10:46:56.433Z,100163.03
2023-01-03T10:49:27.973Z,100163.84
2023-01-03T10:51:57.328Z,100159.81
2023-01-03T10:54:30.043Z,100166.19
2023-01-03T10:56:56.895Z,100160.59
2023-01-03T10:59:23.518Z,100161.09
2023-01-03T11:01:59.286Z,100167.53
2023-01-03T11:04:26.898Z,100158.31
2023-01-03T11:06:59.435Z,100166.81
2023-01-03T11:09:32.676Z,100153.31
2023-01-03T11:12:12.424Z,100152.84
2023-01-03T11:14:39.171Z,100152.03
2023-01-03T11:17:06.787Z,100153.25
2023-01-03T11:19:34.246Z,100147.22
2023-01-03T11:22:05.380Z,100143.56
2023-01-03T11:24:39.743Z,100148.59
2023-01-03T11:27:29.972Z,100151.84
2023-01-03T11:30:08.530Z,100153.72
2023-01-03T11:32:51.674Z,100146.25
2023-01-03T11:35:37.066Z,100147.38
2023-01-03T11:38:26.345Z,100142.41
2023-01-03T11:41:22.244Z,100134.09
2023-01-03T11:44:16.639Z,100142.78
2023-01-03T11:47:27.883Z,100142.09
2023-01-03T11:50:15.756Z,100139.03
2023-01-03T11:52:54.953Z,100138.75
2023-01-03T11:55:45.892Z,100135.78
2023-01-03T11:58:47.888Z,100143.53
2023-01-03T12:01:41.763Z,100135.56
2023-01-03T12:04:29.328Z,100139.97
2023-01-03T12:10:14.000Z,100149.88
2023-01-03T12:13:02.234Z,100144.19
2023-01-03T12:15:47.447Z,100142.81
2023-01-03T12:18:27.601Z,100144.59
2023-01-03T12:21:14.142Z,100138.28
2023-01-03T12:23:43.411Z,100138.06
2023-01-03T12:26:15.381Z,100132.13
2023-01-03T12:29:11.194Z,100135.22
2023-01-03T12:31:40.884Z,100135.22
2023-01-03T12:34:14.066Z,100131.34
2023-01-03T12:37:06.075Z,100130.06
2023-01-03T12:39:56.675Z,100135.16
2023-01-03T12:42:29.317Z,100128.28
2023-01-03T12:45:04.418Z,100124.13
2023-01-03T12:47:46.169Z,100120.09
2023-01-03T12:50:21.491Z,100119.06
2023-01-03T12:52:58.549Z,100116.16
2023-01-03T12:55:42.204Z,100117.94
2023-01-03T12:58:25.420Z,100106.38
2023-01-03T13:00:58.878Z,100113.63
2023-01-03T13:03:40.534Z,100115.59
2023-01-03T13:06:21.790Z,100110.84
2023-01-03T13:09:04.289Z,100106.16
2023-01-03T13:11:37.585Z,100103.78
2023-01-03T13:14:21.259Z,100096.09
2023-01-03T13:16:49.632Z,100095.41
2023-01-03T13:19:22.462Z,100089.59
2023-01-03T13:22:27.872Z,100086.38
2023-01-03T13:24:54.659Z,100084.50
2023-01-03T13:27:48.478Z,100085.78
2023-01-03T13:30:22.237Z,100085.44
2023-01-03T13:33:16.795Z,100086.66
2023-01-03T13:35:43.375Z,100084.97
2023-01-03T13:38:39.058Z,100080.78
2023-01-03T13:41:27.060Z,100085.88
2023-01-03T13:43:54.851Z,100081.22
2023-01-03T13:46:26.005Z,100083.78
2023-01-03T13:48:58.919Z,100080.22
2023-01-03T13:51:27.544Z,100080.91
2023-01-03T13:54:02.072Z,100081.50
2023-01-03T13:56:52.857Z,100083.97
2023-01-03T13:59:32.021Z,100086.53
2023-01-03T14:02:10.577Z,100089.09
2023-01-03T14:05:28.331Z,100082.38
2023-01-03T14:08:19.456Z,100086.97
2023-01-03T14:11:27.948Z,100079.91
2023-01-03T14:13:59.170Z,100080.56
2023-01-03T14:16:53.167Z,100085.78
2023-01-03T14:19:24.220Z,100095.75
2023-01-03T14:21:57.862Z,100091.72
2023-01-03T14:24:30.397Z,100093.88
2023-01-03T14:27:08.899Z,100103.63
2023-01-03T14:29:41.964Z,100098.47
2023-01-03T14:32:34.414Z,100103.75
2023-01-03T14:35:02.514Z,100102.97
2023-01-03T14:37:30.318Z,100102.78
2023-01-03T14:39:59.885Z,100107.97
2023-01-03T14:42:27.124Z,100111.53
2023-01-03T14:44:59.693Z,100110.00
2023-01-03T14:47:32.629Z,100107.75
2023-01-03T14:49:59.840Z,100120.84
2023-01-03T14:52:35.050Z,100111.84
2023-01-03T14:55:07.248Z,100108.63
2023-01-03T14:57:38.980Z,100111.91
2023-01-03T15:00:07.843Z,100111.72
2023-01-03T15:02:39.148Z,100121.16
2023-01-03T15:05:28.495Z,100121.16
2023-01-03T15:08:06.784Z,100107.31
2023-01-03T15:11:06.024Z,100119.72
2023-01-03T15:13:43.517Z,100122.44
2023-01-03T15:16:29.783Z,100125.22
2023-01-03T15:19:27.067Z,100125.41
2023-01-03T15:22:13.454Z,100127.88
2023-01-03T15:24:47.005Z,100129.72
2023-01-03T15:27:38.356Z,100135.00
2023-01-03T15:30:15.163Z,100134.94
2023-01-03T15:32:49.778Z,100137.31
2023-01-03T15:35:43.049Z,100142.00
2023-01-03T15:38:31.980Z,100131.69
2023-01-03T15:40:59.258Z,100139.91
2023-01-03T15:43:36.540Z,100146.03
2023-01-03T15:46:09.102Z,100143.22
2023-01-03T15:48:36.417Z,100150.94
2023-01-03T15:51:04.896Z,100159.00
2023-01-03T15:53:42.842Z,100157.06
2023-01-03T15:56:24.324Z,100164.19
2023-01-03T15:58:54.663Z,100160.09
2023-01-03T16:01:23.178Z,100160.22
2023-01-03T16:03:51.881Z,100165.28
2023-01-03T16:06:18.672Z,100169.78
2023-01-03T16:08:46.286Z,100160.94
2023-01-03T16:11:19.396Z,100157.38
2023-01-03T16:13:52.961Z,100152.09
2023-01-03T16:16:24.432Z,100149.38
2023-01-03T16:18:51.381Z,100155.66
2023-01-03T16:21:18.159Z,100150.38
2023-01-03T16:23:44.762Z,100140.84
2023-01-03T16:26:11.378Z,100139.84
2023-01-03T16:28:38.089Z,100146.28
2023-01-03T16:31:18.705Z,100142.69
2023-01-03T16:33:47.747Z,100139.84
2023-01-03T16:36:29.525Z,100140.06
2023-01-03T16:38:56.223Z,100144.41
2023-01-03T16:41:23.010Z,100142.63
2023-01-03T16:43:49.805Z,100141.00
2023-01-03T16:46:20.351Z,100141.09
2023-01-03T16:48:52.352Z,100137.53
2023-01-03T16:51:24.521Z,100130.59
2023-01-03T16:53:52.351Z,100130.78
2023-01-03T16:56:19.200Z,100129.94
2023-01-03T16:58:45.832Z,100132.78
2023-01-03T17:01:13.774Z,100127.97
2023-01-03T17:03:42.208Z,100129.69
2023-01-03T17:06:35.378Z,100137.06
2023-01-03T17:09:11.822Z,100132.94
2023-01-03T17:11:38.746Z,100134.78
2023-01-03T17:14:05.839Z,100136.56
2023-01-03T17:16:34.048Z,100134.84
2023-01-03T17:19:00.733Z,100129.91
2023-01-03T17:21:32.891Z,100142.22
2023-01-03T17:24:11.202Z,100144.09
2023-01-03T17:26:37.985Z,100131.91
2023-01-03T17:29:06.977Z,100127.81
2023-01-03T17:31:33.731Z,100119.97
2023-01-03T17:34:00.456Z,100125.22
2023-01-03T17:36:30.847Z,100124.53
2023-01-03T17:39:02.111Z,100116.16
2023-01-03T17:41:29.857Z,100123.13
2023-01-03T17:43:56.684Z,100115.38
2023-01-03T17:46:44.412Z,100103.91
2023-01-03T17:49:24.465Z,100110.31
2023-01-03T17:51:51.980Z,100107.06
2023-01-03T17:54:27.552Z,100107.06
2023-01-03T17:56:55.976Z,100100.16
2023-01-03T17:59:22.652Z,100110.06
2023-01-03T18:01:52.365Z,100109.16
2023-01-03T18:04:19.553Z,100109.22
2023-01-03T18:06:54.957Z,100103.03
2023-01-03T18:09:22.886Z,100105.50
2023-01-03T18:11:49.823Z,100109.78
2023-01-03T18:14:16.577Z,100102.84
2023-01-03T18:16:43.636Z,100108.69
2023-01-03T18:19:10.969Z,100103.66
2023-01-03T18:21:38.147Z,100100.94
2023-01-03T18:24:10.193Z,100109.63
2023-01-03T18:26:43.665Z,100109.47
2023-01-03T18:29:13.522Z,100107.75
2023-01-03T18:31:40.223Z,100110.19
2023-01-03T18:34:06.909Z,100106.59
2023-01-03T18:36:49.712Z,100116.22
2023-01-03T18:39:25.401Z,100117.06
2023-01-03T18:41:52.388Z,100116.09
2023-01-03T18:44:22.099Z,100115.97
2023-01-03T18:46:50.016Z,100111.56
2023-01-03T18:49:17.339Z,100113.16
2023-01-03T18:51:44.492Z,100110.50
2023-01-03T18:54:18.203Z,100106.16
2023-01-03T18:56:45.149Z,100106.16
2023-01-03T18:59:27.041Z,100101.75
2023-01-03T19:01:54.725Z,100106.00
2023-01-03T19:04:21.785Z,100101.75
2023-01-03T19:06:51.933Z,100115.00
2023-01-03T19:09:24.925Z,100117.88
2023-01-03T19:11:53.864Z,100122.09
2023-01-03T19:14:20.559Z,100122.09
2023-01-03T19:16:47.212Z,100118.63
2023-01-03T19:19:13.893Z,100128.41
2023-01-03T19:21:42.721Z,100117.63
2023-01-03T19:24:22.847Z,100115.78
2023-01-03T19:27:06.724Z,100115.16
2023-01-03T19:29:37.150Z,100123.97
2023-01-03T19:32:09.898Z,100116.22
2023-01-03T19:34:36.601Z,100110.03
2023-01-03T19:37:03.388Z,100107.38
2023-01-03T19:39:36.794Z,100110.81
2023-01-03T19:42:24.572Z,100105.69
2023-01-03T19:44:51.414Z,100106.59
2023-01-03T19:47:20.264Z,100112.72
2023-01-03T19:49:47.671Z,100099.56
2023-01-03T19:52:15.946Z,100102.91
2023-01-03T19:54:43.043Z,100099.41
2023-01-03T19:57:33.275Z,100101.28
2023-01-03T20:00:01.797Z,100103.78
2023-01-03T20:02:40.794Z,100101.19
2023-01-03T20:05:26.835Z,100103.91
2023-01-03T20:07:53.741Z,100101.34
2023-01-03T20:10:24.092Z,100098.06
2023-01-03T20:12:53.849Z,100099.84
2023-01-03T20:15:26.006Z,100092.13
2023-01-03T20:17:53.837Z,100090.19
2023-01-03T20:20:21.982Z,100084.97
2023-01-03T20:23:06.696Z,100091.09
2023-01-03T20:25:35.528Z,100082.44
2023-01-03T20:28:02.375Z,100077.19
2023-01-03T20:30:31.223Z,100076.38
2023-01-03T20:32:58.093Z,100074.97
2023-01-03T20:38:16.808Z,100077.59
2023-01-03T20:40:43.477Z,100075.75
2023-01-03T20:43:13.729Z,100074.19
2023-01-03T20:45:40.807Z,100067.13
2023-01-03T20:48:25.611Z,100072.69
2023-01-03T20:50:53.216Z,100058.06
2023-01-03T20:53:26.546Z,100057.13
2023-01-03T20:55:54.020Z,100049.44
2023-01-03T20:58:25.325Z,100050.28
2023-01-03T21:00:56.776Z,100045.03
2023-01-03T21:03:28.730Z,100052.13
2023-01-03T21:05:56.269Z,100052.31
2023-01-03T21:08:41.241Z,100048.31
2023-01-03T21:11:07.872Z,100048.44
2023-01-03T21:13:40.755Z,100038.78
2023-01-03T21:16:17.478Z,100044.22
2023-01-03T21:18:44.135Z,100041.25
2023-01-03T21:21:19.707Z,100041.25
2023-01-03T21:23:46.880Z,100046.69
2023-01-03T21:26:13.636Z,100037.94
2023-01-03T21:28:40.283Z,100042.28
2023-01-03T21:31:07.175Z,100046.63
2023-01-03T21:33:33.833Z,100045.72
2023-01-03T21:36:00.487Z,100048.75
2023-01-03T21:38:27.350Z,100052.47
2023-01-03T21:40:54.456Z,100045.44
2023-01-03T21:43:21.071Z,100047.38
2023-01-03T21:45:52.910Z,100041.38
2023-01-03T21:48:19.602Z,100032.69
2023-01-03T21:50:47.834Z,100035.25
2023-01-03T21:53:17.496Z,100032.69
2023-01-03T21:55:44.395Z,100028.28
2023-01-03T21:58:14.567Z,100033.72
2023-01-03T22:00:41.676Z,100029.31
2023-01-03T22:03:33.989Z,100034.63
2023-01-03T22:06:14.056Z,100018.22
2023-01-03T22:08:40.930Z,100017.41
2023-01-03T22:11:08.249Z,100014.66
2023-01-03T22:13:36.145Z,100021.97
2023-01-03T22:16:08.035Z,100011.53
2023-01-03T22:18:35.647Z,100011.66
2023-01-03T22:21:07.499Z,100013.44
2023-01-03T22:23:34.258Z,100009.97
2023-01-03T22:26:06.948Z,100004.13
2023-01-03T22:28:40.093Z,100007.81
2023-01-03T22:31:14.171Z,100005.34
2023-01-03T22:33:40.924Z,100007.13
2023-01-03T22:36:08.583Z,100012.50
2023-01-03T22:38:36.356Z,100017.06
2023-01-03T22:41:08.410Z,100007.34
2023-01-03T22:43:35.367Z,100010.88
2023-01-03T22:46:06.533Z,100008.25
2023-01-03T22:48:33.124Z,100006.53
2023-01-03T22:51:11.405Z,100007.63
2023-01-03T22:53:39.900Z,99996.16
2023-01-03T22:56:08.588Z,99986.78
2023-01-03T22:58:36.963Z,99987.13
2023-01-03T23:01:30.185Z,99984.59
2023-01-03T23:04:03.262Z,99982.81
2023-01-03T23:06:31.737Z,99969.00
2023-01-03T23:08:58.709Z,99973.91
2023-01-03T23:11:46.275Z,99967.72
2023-01-03T23:14:18.109Z,99966.31
2023-01-03T23:16:45.860Z,99963.75
2023-01-03T23:19:15.540Z,99954.09
2023-01-03T23:21:42.988Z,99957.66
2023-01-03T23:24:16.710Z,99948.63
2023-01-03T23:26:43.463Z,99944.44
2023-01-03T23:29:10.966Z,99951.97
2023-01-03T23:31:37.771Z,99953.78
2023-01-03T23:34:04.366Z,99946.63
2023-01-03T23:36:30.990Z,99944.84
2023-01-03T23:38:57.947Z,99925.81
2023-01-03T23:41:24.918Z,99913.44
2023-01-03T23:43:51.856Z,99923.09
2023-01-03T23:46:21.919Z,99915.00
2023-01-03T23:48:49.366Z,99927.06
2023-01-03T23:51:16.068Z,99931.34
2023-01-03T23:53:43.782Z,99929.09
2023-01-03T23:56:15.829Z,99938.75
2023-01-03T23:58:42.865Z,99930.13
